Time;durP1;ratioP1;P1;durP2;ratioP2;P2;SDS_P1;SDS_P2;PMS_P1;PMS_P2;Temp;Humidity;BMP_temperature;BMP_pressure;BME280_temperature;BME280_humidity;BME280_pressure;Samples;Min_cycle;Max_cycle;Signal;HPM_P1;HPM_P2
2022/06/29 00:00:11;;;;;;;;;;;15.70;99.90;;;;;;5055237;28;19924;-64
2022/06/29 00:02:38;;;;;;;;;;;15.70;99.90;;;;;;5056085;28;20383;-64
2022/06/29 00:05:05;;;;;;;;;;;15.70;99.90;;;;;;5055144;28;19921;-64
2022/06/29 00:07:32;;;;;;;;;;;15.70;99.90;;;;;;5055296;28;20003;-64
2022/06/29 00:09:59;;;;;;;;;;;15.70;99.90;;;;;;5087704;28;19923;-64
2022/06/29 00:12:26;;;;;;;;;;;15.60;99.90;;;;;;5055043;28;19917;-63
2022/06/29 00:14:53;;;;;;;;;;;15.60;99.90;;;;;;5054152;28;20260;-64
2022/06/29 00:17:19;;;;;;;;;;;15.60;99.90;;;;;;5054902;28;19916;-64
2022/06/29 00:19:46;;;;;;;;;;;15.60;99.90;;;;;;5054940;28;19917;-64
2022/06/29 00:22:14;;;;;;;;;;;15.60;99.90;;;;;;5054794;28;20371;-64
2022/06/29 00:24:40;;;;;;;;;;;15.60;99.90;;;;;;5054760;28;19920;-64
2022/06/29 00:27:08;;;;;;;;;;;15.60;99.90;;;;;;5054986;28;20356;-64
2022/06/29 00:29:34;;;;;;;;;;;15.60;99.90;;;;;;5055778;28;19920;-64
2022/06/29 00:32:01;;;;;;;;;;;15.50;99.90;;;;;;5055490;28;19917;-64
2022/06/29 00:34:28;;;;;;;;;;;15.50;99.90;;;;;;5055371;28;19917;-64
2022/06/29 00:36:55;;;;;;;;;;;15.50;99.90;;;;;;5055931;28;19924;-64
2022/06/29 00:39:22;;;;;;;;;;;15.50;99.90;;;;;;5055312;28;19916;-64
2022/06/29 00:41:48;;;;;;;;;;;15.50;99.90;;;;;;5054478;28;19923;-64
2022/06/29 00:44:16;;;;;;;;;;;15.50;99.90;;;;;;5054711;28;19916;-63
2022/06/29 00:46:43;;;;;;;;;;;15.40;99.90;;;;;;5054596;28;19924;-63
2022/06/29 00:49:10;;;;;;;;;;;15.40;99.90;;;;;;5087233;28;19917;-64
2022/06/29 00:51:36;;;;;;;;;;;15.40;99.90;;;;;;5054290;28;20293;-64
2022/06/29 00:54:03;;;;;;;;;;;15.40;99.90;;;;;;5086908;28;20238;-64
2022/06/29 00:56:31;;;;;;;;;;;15.40;99.90;;;;;;5054179;28;20344;-64
2022/06/29 00:58:58;;;;;;;;;;;15.40;99.90;;;;;;5055011;28;20248;-64
2022/06/29 01:01:25;;;;;;;;;;;15.40;99.90;;;;;;5052881;28;19936;-64
2022/06/29 01:03:52;;;;;;;;;;;15.40;99.90;;;;;;5054048;28;19991;-64
2022/06/29 01:06:19;;;;;;;;;;;15.30;99.90;;;;;;5086387;28;19999;-65
2022/06/29 01:08:45;;;;;;;;;;;15.40;99.90;;;;;;5054201;28;19932;-64
2022/06/29 01:11:12;;;;;;;;;;;15.40;99.90;;;;;;5054795;28;19924;-64
2022/06/29 01:13:42;;;;;;;;;;;15.40;99.90;;;;;;5055037;28;19917;-64
2022/06/29 01:16:09;;;;;;;;;;;15.40;99.90;;;;;;5054860;28;19923;-64
2022/06/29 01:18:37;;;;;;;;;;;15.40;99.90;;;;;;5053813;28;19924;-65
2022/06/29 01:21:04;;;;;;;;;;;15.40;99.90;;;;;;5054881;28;20340;-64
2022/06/29 01:23:31;;;;;;;;;;;15.40;99.90;;;;;;5086096;28;19916;-64
2022/06/29 01:26:07;;;;;;;;;;;15.40;99.90;;;;;;5052266;28;20356;-64
2022/06/29 01:28:34;;;;;;;;;;;15.40;99.90;;;;;;5069108;28;19917;-64
2022/06/29 01:31:01;;;;;;;;;;;15.40;99.90;;;;;;5053907;28;19916;-64
2022/06/29 01:33:28;;;;;;;;;;;15.40;99.90;;;;;;5053621;28;20319;-64
2022/06/29 01:35:54;;;;;;;;;;;15.40;99.90;;;;;;5053462;28;19920;-65
2022/06/29 01:38:21;;;;;;;;;;;15.40;99.90;;;;;;5054402;28;19916;-65
2022/06/29 01:40:48;;;;;;;;;;;15.40;99.90;;;;;;5054884;28;19951;-65
2022/06/29 01:43:15;;;;;;;;;;;15.40;99.90;;;;;;5054124;28;19916;-64
2022/06/29 01:45:41;;;;;;;;;;;15.40;99.90;;;;;;5053793;28;19917;-65
2022/06/29 01:48:08;;;;;;;;;;;15.40;99.90;;;;;;5053407;28;19970;-65
2022/06/29 01:50:35;;;;;;;;;;;15.30;99.90;;;;;;5053663;28;19928;-65
2022/06/29 01:53:02;;;;;;;;;;;15.30;99.90;;;;;;5086371;28;20320;-65
2022/06/29 01:55:29;;;;;;;;;;;15.30;99.90;;;;;;5069580;28;19923;-65
2022/06/29 01:57:55;;;;;;;;;;;15.20;99.90;;;;;;5053360;28;19917;-65
2022/06/29 02:00:22;;;;;;;;;;;15.20;99.90;;;;;;5053419;28;19920;-65
2022/06/29 02:02:49;;;;;;;;;;;15.20;99.90;;;;;;5053708;28;19917;-65
2022/06/29 02:05:16;;;;;;;;;;;15.20;99.90;;;;;;5054507;28;19924;-65
2022/06/29 02:07:43;;;;;;;;;;;15.20;99.90;;;;;;5053917;28;20248;-65
2022/06/29 02:10:11;;;;;;;;;;;15.20;99.90;;;;;;5053300;28;19921;-65
2022/06/29 02:12:37;;;;;;;;;;;15.10;99.90;;;;;;5053238;28;20352;-65
2022/06/29 02:15:05;;;;;;;;;;;15.10;99.90;;;;;;5085540;28;19921;-65
2022/06/29 02:17:32;;;;;;;;;;;15.20;99.90;;;;;;5054505;28;19919;-65
2022/06/29 02:19:58;;;;;;;;;;;15.10;99.90;;;;;;5054396;28;20047;-65
2022/06/29 02:22:25;;;;;;;;;;;15.10;99.90;;;;;;5053470;28;19925;-65
2022/06/29 02:24:52;;;;;;;;;;;15.20;99.90;;;;;;5053131;28;20371;-65
2022/06/29 02:27:19;;;;;;;;;;;15.20;99.90;;;;;;5053461;28;20344;-65
2022/06/29 02:29:46;;;;;;;;;;;15.20;99.90;;;;;;5086626;28;19916;-63
2022/06/29 02:34:58;;;;;;;;;;;15.10;99.90;;;;;;5081332;28;19927;-65
2022/06/29 02:37:24;;;;;;;;;;;15.20;99.90;;;;;;5054114;28;19932;-65
2022/06/29 02:39:51;;;;;;;;;;;15.20;99.90;;;;;;5056965;28;19924;-65
2022/06/29 02:42:19;;;;;;;;;;;15.20;99.90;;;;;;5089255;28;19917;-65
2022/06/29 02:44:46;;;;;;;;;;;15.20;99.90;;;;;;5057035;28;20344;-65
2022/06/29 02:47:13;;;;;;;;;;;15.20;99.90;;;;;;5057003;28;20241;-63
2022/06/29 02:49:40;;;;;;;;;;;15.20;99.90;;;;;;5057445;28;20339;-63
2022/06/29 02:52:07;;;;;;;;;;;15.20;99.90;;;;;;5088696;28;20280;-63
2022/06/29 02:54:34;;;;;;;;;;;15.20;99.90;;;;;;5056477;28;20376;-63
2022/06/29 02:57:00;;;;;;;;;;;15.20;99.90;;;;;;5056412;28;20284;-63
2022/06/29 02:59:27;;;;;;;;;;;15.20;99.90;;;;;;5056793;28;19920;-63
2022/06/29 03:01:54;;;;;;;;;;;15.20;99.90;;;;;;5056495;28;20390;-63
2022/06/29 03:04:21;;;;;;;;;;;15.20;99.90;;;;;;5089445;28;19917;-63
2022/06/29 03:06:47;;;;;;;;;;;15.30;99.90;;;;;;5056148;28;20360;-63
2022/06/29 03:09:14;;;;;;;;;;;15.30;99.90;;;;;;5057419;28;19916;-63
2022/06/29 03:11:41;;;;;;;;;;;15.30;99.90;;;;;;5056204;28;20325;-63
2022/06/29 03:14:08;;;;;;;;;;;15.30;99.90;;;;;;5057015;28;19916;-63
2022/06/29 03:16:35;;;;;;;;;;;15.30;99.90;;;;;;5089337;28;19916;-63
2022/06/29 03:19:02;;;;;;;;;;;15.30;99.90;;;;;;5056050;28;20011;-63
2022/06/29 03:21:28;;;;;;;;;;;15.30;99.90;;;;;;5056041;28;20356;-63
2022/06/29 03:23:55;;;;;;;;;;;15.30;99.90;;;;;;5088100;28;20343;-63
2022/06/29 03:26:22;;;;;;;;;;;15.30;99.90;;;;;;5056244;28;19968;-63
2022/06/29 03:28:54;;;;;;;;;;;15.30;99.90;;;;;;5087262;28;19942;-63
2022/06/29 03:31:20;;;;;;;;;;;15.30;99.90;;;;;;5055835;28;19962;-63
2022/06/29 03:33:48;;;;;;;;;;;15.30;99.90;;;;;;5056873;28;20011;-63
2022/06/29 03:36:14;;;;;;;;;;;15.30;99.90;;;;;;5055692;28;19916;-63
2022/06/29 03:38:41;;;;;;;;;;;15.40;99.90;;;;;;5056278;28;19916;-63
2022/06/29 03:41:08;;;;;;;;;;;15.40;99.90;;;;;;5087987;28;19917;-63
2022/06/29 03:43:35;;;;;;;;;;;15.40;99.90;;;;;;5055948;28;19924;-63
2022/06/29 03:46:01;;;;;;;;;;;15.40;99.90;;;;;;5087666;28;19917;-63
2022/06/29 03:48:28;;;;;;;;;;;15.40;99.90;;;;;;5088663;28;19923;-63
2022/06/29 03:50:55;;;;;;;;;;;15.40;99.90;;;;;;5056489;28;19917;-63
2022/06/29 03:53:22;;;;;;;;;;;15.40;99.90;;;;;;5055762;28;19920;-63
2022/06/29 03:55:49;;;;;;;;;;;15.40;99.90;;;;;;5056466;28;20257;-64
2022/06/29 03:58:15;;;;;;;;;;;15.40;99.90;;;;;;5056385;28;19932;-64
2022/06/29 04:00:42;;;;;;;;;;;15.40;99.90;;;;;;5055666;28;19946;-64
2022/06/29 04:03:09;;;;;;;;;;;15.40;99.90;;;;;;5056334;28;19920;-64
2022/06/29 04:05:36;;;;;;;;;;;15.40;99.90;;;;;;5056029;28;19924;-63
2022/06/29 04:08:02;;;;;;;;;;;15.40;99.90;;;;;;5055717;28;19916;-64
2022/06/29 04:10:29;;;;;;;;;;;15.40;99.90;;;;;;5055952;28;19998;-64
2022/06/29 04:12:56;;;;;;;;;;;15.40;99.90;;;;;;5087290;28;19923;-63
2022/06/29 04:15:23;;;;;;;;;;;15.40;99.90;;;;;;5055794;28;19917;-63
2022/06/29 04:17:49;;;;;;;;;;;15.40;99.90;;;;;;5054940;28;20367;-64
2022/06/29 04:23:02;;;;;;;;;;;15.40;99.90;;;;;;5056274;28;19924;-63
2022/06/29 04:25:29;;;;;;;;;;;15.40;99.90;;;;;;5055830;28;19916;-63
2022/06/29 04:27:56;;;;;;;;;;;15.50;99.90;;;;;;5054730;28;19924;-63
2022/06/29 04:30:22;;;;;;;;;;;15.50;99.90;;;;;;5055058;28;20249;-63
2022/06/29 04:32:49;;;;;;;;;;;15.50;99.90;;;;;;5055232;28;20260;-63
2022/06/29 04:35:16;;;;;;;;;;;15.50;99.90;;;;;;5054530;28;19916;-62
2022/06/29 04:37:43;;;;;;;;;;;15.60;99.90;;;;;;5086591;28;19931;-62
2022/06/29 04:40:10;;;;;;;;;;;15.60;99.90;;;;;;5054827;28;20348;-63
2022/06/29 04:42:37;;;;;;;;;;;15.60;99.90;;;;;;5055536;28;19924;-63
2022/06/29 04:45:04;;;;;;;;;;;15.60;99.90;;;;;;5054476;28;20257;-65
2022/06/29 04:47:30;;;;;;;;;;;15.70;99.90;;;;;;5054947;28;19916;-63
2022/06/29 04:49:57;;;;;;;;;;;15.70;99.90;;;;;;5054698;28;20242;-63
2022/06/29 04:52:24;;;;;;;;;;;15.70;99.90;;;;;;5087844;28;19917;-64
2022/06/29 04:54:51;;;;;;;;;;;15.70;99.90;;;;;;5054459;28;19923;-64
2022/06/29 04:57:18;;;;;;;;;;;15.70;99.90;;;;;;5087248;28;19920;-64
2022/06/29 04:59:44;;;;;;;;;;;15.70;99.90;;;;;;5054990;28;19917;-64
2022/06/29 05:02:11;;;;;;;;;;;15.70;99.90;;;;;;5053746;28;19921;-63
2022/06/29 05:04:38;;;;;;;;;;;15.70;99.90;;;;;;5054092;28;19927;-64
2022/06/29 05:07:05;;;;;;;;;;;15.70;99.90;;;;;;5054126;28;19924;-64
2022/06/29 05:09:32;;;;;;;;;;;15.80;99.90;;;;;;5054927;28;20020;-64
2022/06/29 05:11:59;;;;;;;;;;;15.80;99.90;;;;;;5055289;28;20237;-63
2022/06/29 05:14:26;;;;;;;;;;;15.80;99.90;;;;;;5053862;28;19940;-63
2022/06/29 05:16:53;;;;;;;;;;;15.90;99.90;;;;;;5086190;28;19923;-63
2022/06/29 05:19:19;;;;;;;;;;;15.90;99.90;;;;;;5053950;28;20367;-64
2022/06/29 05:21:46;;;;;;;;;;;15.90;99.90;;;;;;5054874;28;20253;-63
2022/06/29 05:24:13;;;;;;;;;;;15.90;99.90;;;;;;5085875;28;20386;-63
2022/06/29 05:26:40;;;;;;;;;;;15.90;99.90;;;;;;5052811;28;20467;-63
2022/06/29 05:29:06;;;;;;;;;;;16.00;99.90;;;;;;5053647;28;19916;-63
2022/06/29 05:31:33;;;;;;;;;;;16.00;99.90;;;;;;5086613;28;19924;-63
2022/06/29 05:34:00;;;;;;;;;;;16.00;99.90;;;;;;5086576;28;19917;-64
2022/06/29 05:36:28;;;;;;;;;;;16.00;99.90;;;;;;5053486;28;19923;-64
2022/06/29 05:38:55;;;;;;;;;;;16.00;99.90;;;;;;5053870;28;19917;-63
2022/06/29 05:41:22;;;;;;;;;;;16.00;99.90;;;;;;5053487;28;19931;-63
2022/06/29 05:43:51;;;;;;;;;;;16.00;99.90;;;;;;5053850;28;20267;-63
2022/06/29 05:46:19;;;;;;;;;;;16.00;99.90;;;;;;5054174;28;19970;-63
2022/06/29 05:48:46;;;;;;;;;;;16.00;99.90;;;;;;5053963;28;19940;-63
2022/06/29 05:51:13;;;;;;;;;;;16.10;99.90;;;;;;5085584;28;19923;-64
2022/06/29 05:53:40;;;;;;;;;;;16.10;99.90;;;;;;5053782;28;19916;-68
2022/06/29 05:56:06;;;;;;;;;;;16.10;99.90;;;;;;5086251;28;20264;-69
2022/06/29 05:58:33;;;;;;;;;;;16.10;99.90;;;;;;5054574;28;19923;-67
2022/06/29 06:01:00;;;;;;;;;;;16.10;99.90;;;;;;5053363;28;19924;-69
2022/06/29 06:03:27;;;;;;;;;;;16.10;99.90;;;;;;5053698;28;19917;-68
2022/06/29 06:05:54;;;;;;;;;;;16.20;99.90;;;;;;5053295;28;19916;-69
2022/06/29 06:08:21;;;;;;;;;;;16.20;99.90;;;;;;5054416;28;19917;-67
2022/06/29 06:10:47;;;;;;;;;;;16.30;99.90;;;;;;5053565;28;19917;-69
2022/06/29 06:13:14;;;;;;;;;;;16.30;99.90;;;;;;5053924;28;19923;-70
2022/06/29 06:15:41;;;;;;;;;;;16.50;99.90;;;;;;5055921;28;19917;-67
2022/06/29 06:18:08;;;;;;;;;;;16.50;99.90;;;;;;5057408;28;20431;-67
2022/06/29 06:20:35;;;;;;;;;;;16.60;99.90;;;;;;5057397;28;19927;-64
2022/06/29 06:23:02;;;;;;;;;;;16.70;99.90;;;;;;5058260;28;19916;-64
2022/06/29 06:25:32;;;;;;;;;;;16.80;99.90;;;;;;5056999;28;20275;-63
2022/06/29 06:28:00;;;;;;;;;;;16.80;99.90;;;;;;5057289;28;19925;-63
2022/06/29 06:30:27;;;;;;;;;;;16.80;99.90;;;;;;5056867;28;19935;-63
2022/06/29 06:32:54;;;;;;;;;;;16.80;99.90;;;;;;5057023;28;20322;-63
2022/06/29 06:35:21;;;;;;;;;;;16.80;99.90;;;;;;5056679;28;20379;-64
2022/06/29 06:37:47;;;;;;;;;;;16.90;99.90;;;;;;5056752;28;19936;-70
2022/06/29 06:42:59;;;;;;;;;;;16.90;99.90;;;;;;5057594;28;19920;-69
2022/06/29 06:45:26;;;;;;;;;;;16.80;99.90;;;;;;5056640;28;19924;-69
2022/06/29 06:47:53;;;;;;;;;;;16.80;99.90;;;;;;5057673;28;19923;-69
2022/06/29 06:50:20;;;;;;;;;;;16.80;99.90;;;;;;5056707;28;19917;-70
2022/06/29 06:52:46;;;;;;;;;;;16.80;99.90;;;;;;5072093;28;19922;-71
2022/06/29 06:55:13;;;;;;;;;;;16.70;99.90;;;;;;5055253;28;19916;-70
2022/06/29 06:57:41;;;;;;;;;;;16.70;99.90;;;;;;5056263;28;20370;-70
2022/06/29 07:00:09;;;;;;;;;;;16.70;99.90;;;;;;5088050;28;19916;-71
2022/06/29 07:02:36;;;;;;;;;;;16.70;99.90;;;;;;5057030;28;19916;-69
2022/06/29 07:05:03;;;;;;;;;;;16.70;99.90;;;;;;5056150;28;20257;-69
2022/06/29 07:07:30;;;;;;;;;;;16.80;99.90;;;;;;5088586;28;19923;-70
2022/06/29 07:09:57;;;;;;;;;;;16.70;99.90;;;;;;5056764;28;20363;-70
2022/06/29 07:12:24;;;;;;;;;;;16.80;99.90;;;;;;5056443;28;19916;-70
2022/06/29 07:14:50;;;;;;;;;;;16.80;99.90;;;;;;5056833;28;19916;-72
2022/06/29 07:17:17;;;;;;;;;;;16.80;99.90;;;;;;5055832;28;19917;-72
2022/06/29 07:19:44;;;;;;;;;;;16.90;99.90;;;;;;5056687;28;19916;-70
2022/06/29 07:22:14;;;;;;;;;;;17.00;99.90;;;;;;5056261;28;19971;-69
2022/06/29 07:24:41;;;;;;;;;;;17.10;99.90;;;;;;5055580;28;19917;-69
2022/06/29 07:27:08;;;;;;;;;;;17.30;99.90;;;;;;5056087;28;19970;-70
2022/06/29 07:29:35;;;;;;;;;;;17.40;99.90;;;;;;5056605;28;19991;-70
2022/06/29 07:32:01;;;;;;;;;;;17.60;99.90;;;;;;5056372;28;20008;-68
2022/06/29 07:34:28;;;;;;;;;;;17.70;99.90;;;;;;5056141;28;19924;-71
2022/06/29 07:36:55;;;;;;;;;;;17.80;99.90;;;;;;5055624;28;19942;-68
2022/06/29 07:39:22;;;;;;;;;;;17.80;99.90;;;;;;5056119;28;19939;-66
2022/06/29 07:41:55;;;;;;;;;;;17.80;99.90;;;;;;5056785;28;19963;-65
2022/06/29 07:44:22;;;;;;;;;;;17.80;99.90;;;;;;5087509;28;19923;-66
2022/06/29 07:46:49;;;;;;;;;;;17.80;99.90;;;;;;5056280;28;20247;-65
2022/06/29 07:49:16;;;;;;;;;;;17.70;99.90;;;;;;5055679;28;20266;-66
2022/06/29 07:51:43;;;;;;;;;;;17.80;99.90;;;;;;5055401;28;19920;-65
2022/06/29 07:54:09;;;;;;;;;;;17.80;99.90;;;;;;5055378;28;20391;-66
2022/06/29 07:56:36;;;;;;;;;;;17.80;99.90;;;;;;5055162;28;19971;-66
2022/06/29 07:59:19;;;;;;;;;;;17.90;99.90;;;;;;5056071;28;19923;-66
2022/06/29 08:01:45;;;;;;;;;;;17.80;99.90;;;;;;5055091;28;19923;-66
2022/06/29 08:04:12;;;;;;;;;;;17.80;99.90;;;;;;5055242;28;19916;-66
2022/06/29 08:06:39;;;;;;;;;;;17.80;99.90;;;;;;5055429;28;20359;-66
2022/06/29 08:09:06;;;;;;;;;;;17.90;99.90;;;;;;5055976;28;20339;-68
2022/06/29 08:11:33;;;;;;;;;;;17.90;99.90;;;;;;5055040;28;20007;-67
2022/06/29 08:14:00;;;;;;;;;;;17.90;99.90;;;;;;5054977;28;19920;-69
2022/06/29 08:16:27;;;;;;;;;;;18.00;99.90;;;;;;5054990;28;19916;-68
2022/06/29 08:18:53;;;;;;;;;;;18.00;99.90;;;;;;5054848;28;19920;-67
2022/06/29 08:21:20;;;;;;;;;;;18.10;99.90;;;;;;5055140;28;19920;-69
2022/06/29 08:23:48;;;;;;;;;;;18.30;99.90;;;;;;5055128;28;19916;-67
2022/06/29 08:26:15;;;;;;;;;;;18.30;99.90;;;;;;5086894;28;19917;-67
2022/06/29 08:29:02;;;;;;;;;;;18.40;99.90;;;;;;5082516;28;19916;-69
2022/06/29 08:31:29;;;;;;;;;;;18.70;99.90;;;;;;5086499;28;19917;-66
2022/06/29 08:33:56;;;;;;;;;;;18.80;99.90;;;;;;5053320;28;19916;-66
2022/06/29 08:36:23;;;;;;;;;;;18.90;99.90;;;;;;5054465;28;19916;-67
2022/06/29 08:39:09;;;;;;;;;;;19.10;99.90;;;;;;5054727;28;19921;-70
2022/06/29 08:41:37;;;;;;;;;;;19.20;99.90;;;;;;5054848;28;19971;-73
2022/06/29 08:44:04;;;;;;;;;;;19.30;99.90;;;;;;5054694;28;20011;-72
2022/06/29 08:46:31;;;;;;;;;;;19.40;99.90;;;;;;5087268;28;19917;-72
2022/06/29 08:48:59;;;;;;;;;;;19.40;99.90;;;;;;5054657;28;19963;-72
2022/06/29 08:51:26;;;;;;;;;;;19.30;99.90;;;;;;5087184;28;19917;-72
2022/06/29 08:53:53;;;;;;;;;;;19.20;99.90;;;;;;5054265;28;20275;-72
2022/06/29 08:56:20;;;;;;;;;;;19.20;99.90;;;;;;5054006;28;19972;-72
2022/06/29 08:58:49;;;;;;;;;;;19.10;99.90;;;;;;5087384;28;19917;-72
2022/06/29 09:01:16;;;;;;;;;;;19.00;99.90;;;;;;5085885;28;20272;-71
2022/06/29 09:03:43;;;;;;;;;;;19.00;99.90;;;;;;5054225;28;19916;-71
2022/06/29 09:06:14;;;;;;;;;;;18.90;99.90;;;;;;5054227;28;19917;-70
2022/06/29 09:08:41;;;;;;;;;;;18.80;99.90;;;;;;5054407;28;20351;-71
2022/06/29 09:11:24;;;;;;;;;;;18.70;99.90;;;;;;5054129;28;19931;-71
2022/06/29 09:14:11;;;;;;;;;;;18.50;99.90;;;;;;5085923;28;20344;-71
2022/06/29 09:16:54;;;;;;;;;;;18.40;99.90;;;;;;5053391;28;19939;-71
2022/06/29 09:19:23;;;;;;;;;;;18.30;99.90;;;;;;5054080;28;20018;-71
2022/06/29 09:21:51;;;;;;;;;;;18.20;99.90;;;;;;5053705;28;19920;-72
2022/06/29 09:24:18;;;;;;;;;;;18.20;99.90;;;;;;5054741;28;19991;-72
2022/06/29 09:26:49;;;;;;;;;;;18.30;99.90;;;;;;5053896;28;19916;-72
2022/06/29 09:29:20;;;;;;;;;;;18.30;99.90;;;;;;5054010;28;19917;-72
2022/06/29 09:32:11;;;;;;;;;;;18.40;99.90;;;;;;5054592;28;19920;-72
2022/06/29 09:34:44;;;;;;;;;;;18.40;99.90;;;;;;5055039;28;19916;-74
2022/06/29 09:37:14;;;;;;;;;;;18.30;99.90;;;;;;5054556;28;20248;-72
2022/06/29 09:39:49;;;;;;;;;;;18.30;99.90;;;;;;5086339;28;19917;-65
2022/06/29 09:42:16;;;;;;;;;;;18.40;99.90;;;;;;5053737;28;19916;-66
2022/06/29 09:44:43;;;;;;;;;;;18.50;99.90;;;;;;5053468;28;19923;-65
2022/06/29 09:47:19;;;;;;;;;;;18.40;99.90;;;;;;5085256;28;20372;-65
2022/06/29 09:49:47;;;;;;;;;;;18.20;99.90;;;;;;5053450;28;20015;-65
2022/06/29 09:52:17;;;;;;;;;;;18.20;99.90;;;;;;5053675;28;19917;-65
2022/06/29 09:54:47;;;;;;;;;;;18.00;99.90;;;;;;5052377;28;20328;-65
2022/06/29 09:57:15;;;;;;;;;;;18.00;99.90;;;;;;5085640;28;19916;-65
2022/06/29 10:02:34;;;;;;;;;;;18.00;99.90;;;;;;5080505;28;19927;-65
2022/06/29 10:05:03;;;;;;;;;;;18.20;99.90;;;;;;5084498;28;19971;-65
2022/06/29 10:07:31;;;;;;;;;;;18.20;99.90;;;;;;5053136;28;20341;-65
2022/06/29 10:09:58;;;;;;;;;;;18.20;99.90;;;;;;5053566;28;19924;-65
2022/06/29 10:15:42;;;;;;;;;;;17.90;99.90;;;;;;5054058;28;19979;-65
2022/06/29 10:18:18;;;;;;;;;;;17.60;99.90;;;;;;5053005;28;19924;-65
2022/06/29 10:20:48;;;;;;;;;;;17.40;99.90;;;;;;5086292;28;19938;-65
2022/06/29 10:23:33;;;;;;;;;;;17.20;99.90;;;;;;5053060;28;19924;-65
2022/06/29 10:26:02;;;;;;;;;;;17.10;99.90;;;;;;5053078;28;19916;-65
2022/06/29 10:28:29;;;;;;;;;;;17.00;99.90;;;;;;5085816;28;19923;-65
2022/06/29 10:30:56;;;;;;;;;;;16.90;99.90;;;;;;5069129;28;19924;-65
2022/06/29 10:33:29;;;;;;;;;;;16.80;99.90;;;;;;5052331;28;19924;-65
2022/06/29 10:36:06;;;;;;;;;;;16.80;99.90;;;;;;5052993;28;19970;-66
2022/06/29 10:38:48;;;;;;;;;;;16.80;99.90;;;;;;5084219;28;19950;-67
2022/06/29 10:44:05;;;;;;;;;;;16.80;99.90;;;;;;5054207;28;20265;-65
2022/06/29 10:46:50;;;;;;;;;;;16.70;99.90;;;;;;5052960;28;19923;-65
2022/06/29 10:49:18;;;;;;;;;;;16.70;99.90;;;;;;5052803;28;19921;-65
2022/06/29 10:51:45;;;;;;;;;;;16.80;99.90;;;;;;5052903;28;19916;-65
2022/06/29 10:54:25;;;;;;;;;;;16.80;99.90;;;;;;5052898;28;20352;-65
2022/06/29 10:56:53;;;;;;;;;;;16.90;99.90;;;;;;5052995;28;19917;-66
2022/06/29 10:59:38;;;;;;;;;;;16.90;99.90;;;;;;5053954;28;19917;-67
2022/06/29 11:02:08;;;;;;;;;;;17.00;99.90;;;;;;5055348;28;19924;-66
2022/06/29 11:04:35;;;;;;;;;;;17.00;99.90;;;;;;5056721;28;19916;-67
2022/06/29 11:12:33;;;;;;;;;;;17.20;99.90;;;;;;5056474;28;19924;-71
2022/06/29 11:17:46;;;;;;;;;;;17.20;99.90;;;;;;5056825;28;19916;-66
2022/06/29 11:20:19;;;;;;;;;;;17.20;99.90;;;;;;5056223;28;19917;-67
2022/06/29 11:22:52;;;;;;;;;;;17.20;99.90;;;;;;5088408;28;19936;-65
2022/06/29 11:25:19;;;;;;;;;;;17.20;99.90;;;;;;5056199;28;19960;-66
2022/06/29 11:27:46;;;;;;;;;;;17.30;99.90;;;;;;5088018;28;20288;-68
2022/06/29 11:30:15;;;;;;;;;;;17.50;99.90;;;;;;5055971;28;19917;-69
2022/06/29 11:32:43;;;;;;;;;;;17.60;99.90;;;;;;5056118;28;19916;-69
2022/06/29 11:35:10;;;;;;;;;;;17.80;99.90;;;;;;5056709;28;20015;-69
2022/06/29 11:37:48;;;;;;;;;;;18.00;99.90;;;;;;5055950;28;19917;-69
2022/06/29 11:40:35;;;;;;;;;;;18.30;99.90;;;;;;5055965;28;19917;-69
2022/06/29 11:43:07;;;;;;;;;;;18.50;99.90;;;;;;5056249;28;20269;-69
2022/06/29 11:45:38;;;;;;;;;;;18.70;99.90;;;;;;5054877;28;19956;-71
2022/06/29 11:48:26;;;;;;;;;;;18.90;99.90;;;;;;5087510;28;19916;-69
2022/06/29 11:50:53;;;;;;;;;;;19.00;99.90;;;;;;5056523;28;20283;-70
2022/06/29 11:53:36;;;;;;;;;;;19.00;99.90;;;;;;5087450;28;19916;-68
2022/06/29 11:56:10;;;;;;;;;;;19.00;99.90;;;;;;5055412;28;20276;-76
2022/06/29 11:58:39;;;;;;;;;;;19.10;99.90;;;;;;5087165;28;19916;-69
2022/06/29 12:01:06;;;;;;;;;;;19.20;99.90;;;;;;5087971;28;19917;-65
2022/06/29 12:03:33;;;;;;;;;;;19.50;99.90;;;;;;5055704;28;19917;-62
2022/06/29 12:06:02;;;;;;;;;;;19.70;99.90;;;;;;5087567;28;19923;-74
2022/06/29 12:08:30;;;;;;;;;;;19.90;99.90;;;;;;5055186;28;20333;-69
2022/06/29 12:10:57;;;;;;;;;;;20.00;99.90;;;;;;5055795;28;19917;-69
2022/06/29 12:13:24;;;;;;;;;;;20.20;99.90;;;;;;5087109;28;19917;-72
2022/06/29 12:15:52;;;;;;;;;;;20.40;99.90;;;;;;5054309;28;20267;-70
2022/06/29 12:18:19;;;;;;;;;;;20.40;99.90;;;;;;5055457;28;20011;-74
2022/06/29 12:20:46;;;;;;;;;;;20.50;99.90;;;;;;5055185;28;20363;-73
2022/06/29 12:23:13;;;;;;;;;;;20.60;99.90;;;;;;5055982;28;19917;-68
2022/06/29 12:25:40;;;;;;;;;;;20.70;99.90;;;;;;5055155;28;19916;-68
2022/06/29 12:28:07;;;;;;;;;;;20.60;99.90;;;;;;5055548;28;19916;-70
2022/06/29 12:30:34;;;;;;;;;;;20.90;99.90;;;;;;5055012;28;19917;-73
2022/06/29 12:33:02;;;;;;;;;;;21.20;99.90;;;;;;5055517;28;19939;-74
2022/06/29 12:35:29;;;;;;;;;;;21.40;99.90;;;;;;5054709;28;20054;-74
2022/06/29 12:37:59;;;;;;;;;;;21.40;99.90;;;;;;5087050;28;20356;-76
2022/06/29 12:40:27;;;;;;;;;;;21.50;99.90;;;;;;5053340;28;19983;-75
2022/06/29 12:42:54;;;;;;;;;;;21.60;99.90;;;;;;5055569;28;19951;-64
2022/06/29 12:45:21;;;;;;;;;;;21.60;99.90;;;;;;5055558;28;19924;-72
2022/06/29 12:47:47;;;;;;;;;;;21.50;99.90;;;;;;5086316;28;19956;-70
2022/06/29 12:50:14;;;;;;;;;;;21.50;99.90;;;;;;5053727;28;19917;-70
2022/06/29 12:52:46;;;;;;;;;;;21.60;99.90;;;;;;5052958;28;20018;-70
2022/06/29 12:55:13;;;;;;;;;;;21.60;99.90;;;;;;5085613;28;19962;-70
2022/06/29 12:57:40;;;;;;;;;;;21.50;99.90;;;;;;5054462;28;19920;-70
2022/06/29 13:00:07;;;;;;;;;;;21.40;99.90;;;;;;5087320;28;19921;-70
2022/06/29 13:02:34;;;;;;;;;;;21.40;99.90;;;;;;5054059;28;19917;-70
2022/06/29 13:05:01;;;;;;;;;;;21.70;99.90;;;;;;5054378;28;19927;-69
2022/06/29 13:07:30;;;;;;;;;;;22.00;99.90;;;;;;5054913;28;19959;-69
2022/06/29 13:10:00;;;;;;;;;;;22.10;99.90;;;;;;5085446;28;20004;-69
2022/06/29 13:12:27;;;;;;;;;;;22.10;99.90;;;;;;5053884;28;19917;-69
2022/06/29 13:14:54;;;;;;;;;;;22.10;99.90;;;;;;5053595;28;20051;-69
2022/06/29 13:17:20;;;;;;;;;;;22.20;99.90;;;;;;5085725;28;20360;-69
2022/06/29 13:19:49;;;;;;;;;;;22.00;99.90;;;;;;5053991;28;19917;-70
2022/06/29 13:22:16;;;;;;;;;;;21.90;99.90;;;;;;5054412;28;19916;-74
2022/06/29 13:24:43;;;;;;;;;;;22.00;99.90;;;;;;5054494;28;19921;-72
2022/06/29 13:27:10;;;;;;;;;;;22.30;99.90;;;;;;5053537;28;20015;-71
2022/06/29 13:29:37;;;;;;;;;;;22.40;99.90;;;;;;5086085;28;19946;-61
2022/06/29 13:32:04;;;;;;;;;;;22.30;99.90;;;;;;5053940;28;19923;-71
2022/06/29 13:34:31;;;;;;;;;;;22.30;99.90;;;;;;5053576;28;19917;-71
2022/06/29 13:36:57;;;;;;;;;;;22.20;99.90;;;;;;5053816;28;19923;-71
2022/06/29 13:39:24;;;;;;;;;;;22.20;99.90;;;;;;5068754;28;20352;-71
2022/06/29 13:41:51;;;;;;;;;;;22.00;99.90;;;;;;5054104;28;19995;-71
2022/06/29 13:44:25;;;;;;;;;;;21.80;99.90;;;;;;5054607;28;20236;-70
2022/06/29 13:46:51;;;;;;;;;;;21.70;99.90;;;;;;5052493;28;20242;-74
2022/06/29 13:49:18;;;;;;;;;;;21.70;99.90;;;;;;5085543;28;20352;-73
2022/06/29 13:51:45;;;;;;;;;;;21.80;99.90;;;;;;5068676;28;20378;-67
2022/06/29 13:54:12;;;;;;;;;;;21.90;99.90;;;;;;5053331;28;19920;-66
2022/06/29 13:56:40;;;;;;;;;;;21.90;99.90;;;;;;5054146;28;19917;-63
2022/06/29 13:59:06;;;;;;;;;;;22.00;99.90;;;;;;5053515;28;20344;-66
2022/06/29 14:01:33;;;;;;;;;;;21.90;99.90;;;;;;5053841;28;19917;-66
2022/06/29 14:04:05;;;;;;;;;;;21.90;99.90;;;;;;5053870;28;19923;-66
2022/06/29 14:06:32;;;;;;;;;;;21.80;99.90;;;;;;5053272;28;20003;-66
2022/06/29 14:08:58;;;;;;;;;;;21.70;99.90;;;;;;5053099;28;19923;-66
2022/06/29 14:11:28;;;;;;;;;;;21.60;99.90;;;;;;5053522;28;19962;-66
2022/06/29 14:13:55;;;;;;;;;;;21.60;99.90;;;;;;5085552;28;19917;-65
2022/06/29 14:16:22;;;;;;;;;;;21.70;99.90;;;;;;5053857;28;19917;-65
2022/06/29 14:18:49;;;;;;;;;;;21.70;99.90;;;;;;5053083;28;19936;-65
2022/06/29 14:21:15;;;;;;;;;;;21.70;99.90;;;;;;5052189;28;19917;-65
2022/06/29 14:23:42;;;;;;;;;;;21.70;99.90;;;;;;5053122;28;20007;-65
2022/06/29 14:26:09;;;;;;;;;;;21.80;99.90;;;;;;5053334;28;19964;-65
2022/06/29 14:28:36;;;;;;;;;;;21.80;99.90;;;;;;5068299;28;19917;-65
2022/06/29 14:31:03;;;;;;;;;;;21.90;99.90;;;;;;5053312;28;19924;-66
2022/06/29 14:33:30;;;;;;;;;;;22.00;99.90;;;;;;5053293;28;19924;-66
2022/06/29 14:35:57;;;;;;;;;;;22.00;99.90;;;;;;5056354;28;20356;-65
2022/06/29 14:38:24;;;;;;;;;;;22.10;99.90;;;;;;5056746;28;19973;-67
2022/06/29 14:40:51;;;;;;;;;;;22.10;99.90;;;;;;5057532;28;20364;-71
2022/06/29 14:43:17;;;;;;;;;;;22.10;99.90;;;;;;5089149;28;20342;-71
2022/06/29 14:45:44;;;;;;;;;;;22.10;99.90;;;;;;5056958;28;19917;-60